sensor_id;sensor_type;location;lat;lon;timestamp;pressure;altitude;pressure_sealevel;temperature;humidity
21359;BME280;13506;50.852;20.632;2023-04-01T00:00:51;96438.19;;;8.48;100.00
21359;BME280;13506;50.852;20.632;2023-04-01T00:03:22;96434.31;;;8.52;100.00
21359;BME280;13506;50.852;20.632;2023-04-01T00:05:50;96428.75;;;8.47;100.00
21359;BME280;13506;50.852;20.632;2023-04-01T00:08:18;96441.19;;;8.53;100.00
21359;BME280;13506;50.852;20.632;2023-04-01T00:10:46;96428.03;;;8.55;100.00
21359;BME280;13506;50.852;20.632;2023-04-01T00:13:14;96432.94;;;8.58;100.00
21359;BME280;13506;50.852;20.632;2023-04-01T00:15:43;96436.34;;;8.58;100.00
21359;BME280;13506;50.852;20.632;2023-04-01T00:18:11;96439.50;;;8.62;100.00
21359;BME280;13506;50.852;20.632;2023-04-01T00:20:44;96438.00;;;8.59;100.00
21359;BME280;13506;50.852;20.632;2023-04-01T00:23:12;96421.38;;;8.60;100.00
21359;BME280;13506;50.852;20.632;2023-04-01T00:25:40;96424.97;;;8.59;100.00
21359;BME280;13506;50.852;20.632;2023-04-01T00:28:08;96426.91;;;8.57;100.00
21359;BME280;13506;50.852;20.632;2023-04-01T00:30:36;96417.16;;;8.59;100.00
21359;BME280;13506;50.852;20.632;2023-04-01T00:33:04;96424.00;;;8.60;100.00
21359;BME280;13506;50.852;20.632;2023-04-01T00:35:32;96425.91;;;8.58;100.00
21359;BME280;13506;50.852;20.632;2023-04-01T00:38:01;96421.09;;;8.63;100.00
21359;BME280;13506;50.852;20.632;2023-04-01T00:40:31;96416.72;;;8.64;100.00
21359;BME280;13506;50.852;20.632;2023-04-01T00:43:00;96427.13;;;8.64;100.00
21359;BME280;13506;50.852;20.632;2023-04-01T00:45:32;96429.06;;;8.62;100.00
21359;BME280;13506;50.852;20.632;2023-04-01T00:48:03;96424.97;;;8.59;100.00
21359;BME280;13506;50.852;20.632;2023-04-01T00:50:34;96426.22;;;8.55;100.00
21359;BME280;13506;50.852;20.632;2023-04-01T00:53:06;96420.34;;;8.53;100.00
21359;BME280;13506;50.852;20.632;2023-04-01T00:55:36;96416.06;;;8.52;100.00
21359;BME280;13506;50.852;20.632;2023-04-01T00:58:11;96410.19;;;8.50;100.00
21359;BME280;13506;50.852;20.632;2023-04-01T01:00:42;96407.59;;;8.50;100.00
21359;BME280;13506;50.852;20.632;2023-04-01T01:03:10;96398.00;;;8.50;100.00
21359;BME280;13506;50.852;20.632;2023-04-01T01:06:09;96400.59;;;8.50;100.00
21359;BME280;13506;50.852;20.632;2023-04-01T01:08:52;96410.19;;;8.50;100.00
21359;BME280;13506;50.852;20.632;2023-04-01T01:11:33;96402.00;;;8.45;100.00
21359;BME280;13506;50.852;20.632;2023-04-01T01:14:12;96406.00;;;8.39;100.00
21359;BME280;13506;50.852;20.632;2023-04-01T01:16:46;96406.53;;;8.33;100.00
21359;BME280;13506;50.852;20.632;2023-04-01T01:19:33;96401.78;;;8.28;100.00
21359;BME280;13506;50.852;20.632;2023-04-01T01:22:27;96396.88;;;8.25;100.00
21359;BME280;13506;50.852;20.632;2023-04-01T01:25:13;96400.44;;;8.24;100.00
21359;BME280;13506;50.852;20.632;2023-04-01T01:27:54;96391.13;;;8.22;100.00
21359;BME280;13506;50.852;20.632;2023-04-01T01:30:45;96401.00;;;8.18;100.00
21359;BME280;13506;50.852;20.632;2023-04-01T01:33:35;96398.69;;;8.15;100.00
21359;BME280;13506;50.852;20.632;2023-04-01T01:36:08;96399.69;;;8.14;100.00
21359;BME280;13506;50.852;20.632;2023-04-01T01:38:39;96399.00;;;8.12;100.00
21359;BME280;13506;50.852;20.632;2023-04-01T01:41:09;96396.66;;;8.09;100.00
21359;BME280;13506;50.852;20.632;2023-04-01T01:43:43;96392.72;;;8.05;100.00
21359;BME280;13506;50.852;20.632;2023-04-01T01:46:16;96404.22;;;8.02;100.00
21359;BME280;13506;50.852;20.632;2023-04-01T01:48:46;96418.38;;;8.00;100.00
21359;BME280;13506;50.852;20.632;2023-04-01T01:51:16;96415.91;;;7.98;100.00
21359;BME280;13506;50.852;20.632;2023-04-01T01:53:45;96413.72;;;7.94;100.00
21359;BME280;13506;50.852;20.632;2023-04-01T01:56:14;96417.28;;;7.93;100.00
21359;BME280;13506;50.852;20.632;2023-04-01T01:58:49;96414.00;;;7.90;100.00
21359;BME280;13506;50.852;20.632;2023-04-01T02:01:28;96416.09;;;7.87;100.00
21359;BME280;13506;50.852;20.632;2023-04-01T02:04:03;96423.06;;;7.86;100.00
21359;BME280;13506;50.852;20.632;2023-04-01T02:06:37;96422.66;;;7.81;100.00
21359;BME280;13506;50.852;20.632;2023-04-01T02:09:07;96422.13;;;7.78;100.00
21359;BME280;13506;50.852;20.632;2023-04-01T02:11:40;96415.28;;;7.77;100.00
21359;BME280;13506;50.852;20.632;2023-04-01T02:14:13;96420.91;;;7.72;100.00
21359;BME280;13506;50.852;20.632;2023-04-01T02:16:47;96421.19;;;7.69;100.00
21359;BME280;13506;50.852;20.632;2023-04-01T02:19:18;96413.00;;;7.64;100.00
21359;BME280;13506;50.852;20.632;2023-04-01T02:21:54;96422.03;;;7.60;100.00
21359;BME280;13506;50.852;20.632;2023-04-01T02:24:24;96424.91;;;7.57;100.00
21359;BME280;13506;50.852;20.632;2023-04-01T02:26:54;96429.44;;;7.55;100.00
21359;BME280;13506;50.852;20.632;2023-04-01T02:29:24;96423.84;;;7.49;100.00
21359;BME280;13506;50.852;20.632;2023-04-01T02:31:53;96423.44;;;7.44;100.00
21359;BME280;13506;50.852;20.632;2023-04-01T02:34:23;96417.00;;;7.39;100.00
21359;BME280;13506;50.852;20.632;2023-04-01T02:36:54;96421.94;;;7.32;100.00
21359;BME280;13506;50.852;20.632;2023-04-01T02:39:23;96427.25;;;7.21;100.00
21359;BME280;13506;50.852;20.632;2023-04-01T02:41:52;96429.34;;;7.17;100.00
21359;BME280;13506;50.852;20.632;2023-04-01T02:44:21;96431.38;;;7.14;100.00
21359;BME280;13506;50.852;20.632;2023-04-01T02:51:12;96439.16;;;7.04;100.00
21359;BME280;13506;50.852;20.632;2023-04-01T02:53:43;96430.84;;;7.00;100.00
21359;BME280;13506;50.852;20.632;2023-04-01T02:56:11;96437.16;;;6.98;100.00
21359;BME280;13506;50.852;20.632;2023-04-01T02:58:39;96436.31;;;6.97;100.00
21359;BME280;13506;50.852;20.632;2023-04-01T03:01:07;96446.44;;;7.00;100.00
21359;BME280;13506;50.852;20.632;2023-04-01T03:03:35;96448.88;;;7.02;100.00
21359;BME280;13506;50.852;20.632;2023-04-01T03:06:05;96446.97;;;7.04;100.00
21359;BME280;13506;50.852;20.632;2023-04-01T03:08:34;96448.50;;;7.06;100.00
21359;BME280;13506;50.852;20.632;2023-04-01T03:11:04;96449.19;;;7.08;100.00
21359;BME280;13506;50.852;20.632;2023-04-01T03:13:35;96435.75;;;7.03;100.00
21359;BME280;13506;50.852;20.632;2023-04-01T03:16:04;96447.41;;;7.09;100.00
21359;BME280;13506;50.852;20.632;2023-04-01T03:18:32;96440.28;;;7.11;100.00
21359;BME280;13506;50.852;20.632;2023-04-01T03:21:13;96447.69;;;7.16;100.00
21359;BME280;13506;50.852;20.632;2023-04-01T03:23:42;96438.91;;;7.17;100.00
21359;BME280;13506;50.852;20.632;2023-04-01T03:26:11;96440.97;;;7.13;100.00
21359;BME280;13506;50.852;20.632;2023-04-01T03:28:40;96452.19;;;7.14;100.00
21359;BME280;13506;50.852;20.632;2023-04-01T03:31:08;96443.44;;;7.15;100.00
21359;BME280;13506;50.852;20.632;2023-04-01T03:33:43;96450.41;;;7.14;100.00
21359;BME280;13506;50.852;20.632;2023-04-01T03:36:11;96448.91;;;7.12;100.00
21359;BME280;13506;50.852;20.632;2023-04-01T03:38:40;96454.09;;;7.12;100.00
21359;BME280;13506;50.852;20.632;2023-04-01T03:41:14;96457.94;;;7.07;100.00
21359;BME280;13506;50.852;20.632;2023-04-01T03:43:44;96462.03;;;7.00;100.00
21359;BME280;13506;50.852;20.632;2023-04-01T03:46:17;96469.97;;;6.99;100.00
21359;BME280;13506;50.852;20.632;2023-04-01T03:48:45;96459.00;;;6.95;100.00
21359;BME280;13506;50.852;20.632;2023-04-01T03:51:13;96459.69;;;6.97;100.00
21359;BME280;13506;50.852;20.632;2023-04-01T03:53:42;96458.31;;;6.93;100.00
21359;BME280;13506;50.852;20.632;2023-04-01T03:56:10;96471.75;;;6.98;100.00
21359;BME280;13506;50.852;20.632;2023-04-01T03:58:39;96472.69;;;6.97;100.00
21359;BME280;13506;50.852;20.632;2023-04-01T04:01:17;96463.97;;;6.98;100.00
21359;BME280;13506;50.852;20.632;2023-04-01T04:03:49;96462.44;;;6.96;100.00
21359;BME280;13506;50.852;20.632;2023-04-01T04:06:18;96471.63;;;7.00;100.00
21359;BME280;13506;50.852;20.632;2023-04-01T04:08:47;96478.31;;;7.02;100.00
21359;BME280;13506;50.852;20.632;2023-04-01T04:11:16;96477.34;;;7.03;100.00
21359;BME280;13506;50.852;20.632;2023-04-01T04:13:46;96481.34;;;7.07;100.00
21359;BME280;13506;50.852;20.632;2023-04-01T04:16:17;96475.88;;;7.11;100.00
21359;BME280;13506;50.852;20.632;2023-04-01T04:18:50;96476.56;;;7.13;100.00
21359;BME280;13506;50.852;20.632;2023-04-01T04:21:18;96482.28;;;7.16;100.00
21359;BME280;13506;50.852;20.632;2023-04-01T04:23:46;96471.34;;;7.22;100.00
21359;BME280;13506;50.852;20.632;2023-04-01T04:26:17;96483.13;;;7.26;100.00
21359;BME280;13506;50.852;20.632;2023-04-01T04:28:54;96474.91;;;7.31;100.00
21359;BME280;13506;50.852;20.632;2023-04-01T04:31:23;96484.38;;;7.32;100.00
21359;BME280;13506;50.852;20.632;2023-04-01T04:33:55;96479.69;;;7.36;100.00
21359;BME280;13506;50.852;20.632;2023-04-01T04:36:23;96485.31;;;7.41;100.00
21359;BME280;13506;50.852;20.632;2023-04-01T04:38:52;96488.47;;;7.44;100.00
21359;BME280;13506;50.852;20.632;2023-04-01T04:41:21;96478.06;;;7.44;100.00
21359;BME280;13506;50.852;20.632;2023-04-01T04:43:53;96477.78;;;7.47;100.00
21359;BME280;13506;50.852;20.632;2023-04-01T04:46:24;96470.66;;;7.49;100.00
21359;BME280;13506;50.852;20.632;2023-04-01T04:48:58;96480.94;;;7.51;100.00
21359;BME280;13506;50.852;20.632;2023-04-01T04:51:26;96471.34;;;7.52;100.00
21359;BME280;13506;50.852;20.632;2023-04-01T04:53:54;96479.16;;;7.52;100.00
21359;BME280;13506;50.852;20.632;2023-04-01T04:56:32;96478.19;;;7.53;100.00
21359;BME280;13506;50.852;20.632;2023-04-01T04:59:07;96482.00;;;7.58;100.00
21359;BME280;13506;50.852;20.632;2023-04-01T05:01:51;96475.72;;;7.61;100.00
21359;BME280;13506;50.852;20.632;2023-04-01T05:04:19;96489.28;;;7.64;100.00
21359;BME280;13506;50.852;20.632;2023-04-01T05:06:47;96482.84;;;7.68;100.00
21359;BME280;13506;50.852;20.632;2023-04-01T05:09:17;96487.63;;;7.73;100.00
21359;BME280;13506;50.852;20.632;2023-04-01T05:11:45;96479.53;;;7.76;100.00
21359;BME280;13506;50.852;20.632;2023-04-01T05:14:16;96489.53;;;7.81;100.00
21359;BME280;13506;50.852;20.632;2023-04-01T05:16:52;96484.84;;;7.84;100.00
21359;BME280;13506;50.852;20.632;2023-04-01T05:19:21;96484.72;;;7.86;99.43
21359;BME280;13506;50.852;20.632;2023-04-01T05:21:49;96492.38;;;7.87;99.95
21359;BME280;13506;50.852;20.632;2023-04-01T05:24:17;96492.09;;;7.90;100.00
21359;BME280;13506;50.852;20.632;2023-04-01T05:26:45;96489.38;;;7.92;99.42
21359;BME280;13506;50.852;20.632;2023-04-01T05:29:15;96490.47;;;7.89;99.72
21359;BME280;13506;50.852;20.632;2023-04-01T05:31:45;96493.75;;;7.91;99.39
21359;BME280;13506;50.852;20.632;2023-04-01T05:34:13;96484.28;;;7.90;99.30
21359;BME280;13506;50.852;20.632;2023-04-01T05:36:42;96487.19;;;7.87;99.57
21359;BME280;13506;50.852;20.632;2023-04-01T05:39:11;96489.66;;;7.89;99.87
21359;BME280;13506;50.852;20.632;2023-04-01T05:41:40;96491.84;;;7.94;99.67
21359;BME280;13506;50.852;20.632;2023-04-01T05:44:10;96489.34;;;8.02;100.00
21359;BME280;13506;50.852;20.632;2023-04-01T05:46:40;96489.47;;;8.10;99.85
21359;BME280;13506;50.852;20.632;2023-04-01T05:49:34;96483.59;;;8.08;99.42
21359;BME280;13506;50.852;20.632;2023-04-01T05:52:04;96485.22;;;8.09;99.23
21359;BME280;13506;50.852;20.632;2023-04-01T05:54:35;96483.28;;;8.11;99.57
21359;BME280;13506;50.852;20.632;2023-04-01T05:57:03;96487.38;;;8.14;99.53
21359;BME280;13506;50.852;20.632;2023-04-01T05:59:31;96479.56;;;8.23;99.78
21359;BME280;13506;50.852;20.632;2023-04-01T06:02:03;96484.19;;;8.29;99.45
21359;BME280;13506;50.852;20.632;2023-04-01T06:04:34;96481.00;;;8.36;99.43
21359;BME280;13506;50.852;20.632;2023-04-01T06:07:10;96481.53;;;8.49;99.72
21359;BME280;13506;50.852;20.632;2023-04-01T06:09:39;96475.69;;;8.65;99.21
21359;BME280;13506;50.852;20.632;2023-04-01T06:12:38;96487.41;;;8.79;98.61
21359;BME280;13506;50.852;20.632;2023-04-01T06:15:25;96490.97;;;9.05;98.50
21359;BME280;13506;50.852;20.632;2023-04-01T06:24:31;96493.28;;;9.80;94.65
21359;BME280;13506;50.852;20.632;2023-04-01T06:27:14;96490.13;;;9.94;93.09
21359;BME280;13506;50.852;20.632;2023-04-01T06:29:55;96499.63;;;10.04;91.39
21359;BME280;13506;50.852;20.632;2023-04-01T06:32:49;96493.41;;;9.97;91.74
21359;BME280;13506;50.852;20.632;2023-04-01T06:35:38;96499.69;;;9.86;91.65
21359;BME280;13506;50.852;20.632;2023-04-01T06:41:32;96492.44;;;9.62;92.18
21359;BME280;13506;50.852;20.632;2023-04-01T06:44:16;96491.56;;;9.71;93.84
21359;BME280;13506;50.852;20.632;2023-04-01T06:47:27;96500.78;;;9.83;92.98
21359;BME280;13506;50.852;20.632;2023-04-01T06:50:32;96492.66;;;9.86;92.60
21359;BME280;13506;50.852;20.632;2023-04-01T06:53:31;96493.53;;;9.95;92.63
21359;BME280;13506;50.852;20.632;2023-04-01T06:56:21;96494.22;;;9.97;92.62
21359;BME280;13506;50.852;20.632;2023-04-01T06:59:01;96499.03;;;10.10;92.29
21359;BME280;13506;50.852;20.632;2023-04-01T07:01:34;96492.88;;;10.19;91.42
21359;BME280;13506;50.852;20.632;2023-04-01T07:04:09;96495.84;;;10.24;91.26
21359;BME280;13506;50.852;20.632;2023-04-01T07:06:44;96493.53;;;10.21;90.86
21359;BME280;13506;50.852;20.632;2023-04-01T07:09:19;96500.38;;;10.14;90.78
21359;BME280;13506;50.852;20.632;2023-04-01T07:12:18;96505.25;;;10.17;91.89
21359;BME280;13506;50.852;20.632;2023-04-01T07:15:18;96507.53;;;10.12;91.20
21359;BME280;13506;50.852;20.632;2023-04-01T07:17:51;96507.69;;;10.10;91.77
21359;BME280;13506;50.852;20.632;2023-04-01T07:20:24;96509.13;;;10.05;91.90
21359;BME280;13506;50.852;20.632;2023-04-01T07:22:57;96511.88;;;10.03;91.55
21359;BME280;13506;50.852;20.632;2023-04-01T07:25:35;96498.25;;;9.91;92.73
21359;BME280;13506;50.852;20.632;2023-04-01T07:28:31;96501.69;;;9.92;93.00
21359;BME280;13506;50.852;20.632;2023-04-01T07:31:47;96510.34;;;9.92;93.49
21359;BME280;13506;50.852;20.632;2023-04-01T07:34:22;96509.34;;;9.93;94.27
21359;BME280;13506;50.852;20.632;2023-04-01T07:36:59;96509.47;;;10.10;94.42
21359;BME280;13506;50.852;20.632;2023-04-01T07:39:37;96509.88;;;10.23;94.01
21359;BME280;13506;50.852;20.632;2023-04-01T07:42:31;96510.91;;;10.30;92.87
21359;BME280;13506;50.852;20.632;2023-04-01T07:45:12;96509.94;;;10.31;92.24
21359;BME280;13506;50.852;20.632;2023-04-01T07:47:58;96513.06;;;10.35;91.52
21359;BME280;13506;50.852;20.632;2023-04-01T07:50:34;96511.22;;;10.27;92.00
21359;BME280;13506;50.852;20.632;2023-04-01T07:53:12;96507.63;;;10.28;91.06
21359;BME280;13506;50.852;20.632;2023-04-01T07:55:45;96520.13;;;10.17;92.19
21359;BME280;13506;50.852;20.632;2023-04-01T07:58:26;96512.28;;;10.17;92.87
21359;BME280;13506;50.852;20.632;2023-04-01T08:01:01;96513.75;;;10.11;92.71
21359;BME280;13506;50.852;20.632;2023-04-01T08:06:41;96516.97;;;10.05;92.95
21359;BME280;13506;50.852;20.632;2023-04-01T08:09:22;96517.13;;;10.03;93.71
21359;BME280;13506;50.852;20.632;2023-04-01T08:12:21;96527.41;;;10.05;93.03
21359;BME280;13506;50.852;20.632;2023-04-01T08:15:10;96525.31;;;10.08;92.94
21359;BME280;13506;50.852;20.632;2023-04-01T08:18:07;96523.81;;;10.06;92.90
21359;BME280;13506;50.852;20.632;2023-04-01T08:20:44;96527.56;;;10.03;93.35
21359;BME280;13506;50.852;20.632;2023-04-01T08:23:16;96522.41;;;9.93;93.28
21359;BME280;13506;50.852;20.632;2023-04-01T08:25:51;96515.91;;;9.98;94.48
21359;BME280;13506;50.852;20.632;2023-04-01T08:28:26;96524.75;;;9.97;94.23
21359;BME280;13506;50.852;20.632;2023-04-01T08:31:05;96530.56;;;9.90;94.40
21359;BME280;13506;50.852;20.632;2023-04-01T08:33:38;96516.31;;;9.85;94.72
21359;BME280;13506;50.852;20.632;2023-04-01T08:36:15;96534.47;;;9.86;96.39
21359;BME280;13506;50.852;20.632;2023-04-01T08:38:53;96530.50;;;9.82;95.10
21359;BME280;13506;50.852;20.632;2023-04-01T08:41:53;96526.91;;;9.83;95.84
21359;BME280;13506;50.852;20.632;2023-04-01T08:48:33;96527.03;;;10.00;95.85
21359;BME280;13506;50.852;20.632;2023-04-01T08:51:27;96521.47;;;10.21;95.97
21359;BME280;13506;50.852;20.632;2023-04-01T08:54:18;96522.56;;;10.44;94.92
21359;BME280;13506;50.852;20.632;2023-04-01T08:56:58;96512.34;;;10.59;93.42
21359;BME280;13506;50.852;20.632;2023-04-01T08:59:54;96511.47;;;10.77;93.88
21359;BME280;13506;50.852;20.632;2023-04-01T09:03:37;96520.97;;;10.86;92.27
21359;BME280;13506;50.852;20.632;2023-04-01T09:06:32;96515.41;;;10.89;91.56
21359;BME280;13506;50.852;20.632;2023-04-01T09:09:27;96518.34;;;10.86;91.67
21359;BME280;13506;50.852;20.632;2023-04-01T09:12:23;96517.19;;;10.80;89.85
21359;BME280;13506;50.852;20.632;2023-04-01T09:18:33;96510.63;;;10.76;90.50
21359;BME280;13506;50.852;20.632;2023-04-01T09:24:40;96502.47;;;10.79;90.30
21359;BME280;13506;50.852;20.632;2023-04-01T09:27:19;96524.84;;;10.73;90.74
21359;BME280;13506;50.852;20.632;2023-04-01T09:33:17;96530.97;;;10.22;94.16
21359;BME280;13506;50.852;20.632;2023-04-01T09:36:02;96535.59;;;10.10;95.20
21359;BME280;13506;50.852;20.632;2023-04-01T09:38:39;96530.63;;;9.99;95.95
21359;BME280;13506;50.852;20.632;2023-04-01T09:41:24;96532.53;;;9.88;97.10
21359;BME280;13506;50.852;20.632;2023-04-01T09:44:26;96534.75;;;9.83;97.67
21359;BME280;13506;50.852;20.632;2023-04-01T09:47:27;96536.97;;;9.78;98.88
21359;BME280;13506;50.852;20.632;2023-04-01T09:50:16;96540.84;;;9.74;99.48
21359;BME280;13506;50.852;20.632;2023-04-01T09:52:53;96534.50;;;9.77;99.78
21359;BME280;13506;50.852;20.632;2023-04-01T09:56:18;96534.00;;;9.73;99.07
21359;BME280;13506;50.852;20.632;2023-04-01T09:59:11;96554.50;;;9.68;100.00
21359;BME280;13506;50.852;20.632;2023-04-01T10:02:27;96537.34;;;9.65;99.67
21359;BME280;13506;50.852;20.632;2023-04-01T10:05:30;96534.00;;;9.73;100.00
21359;BME280;13506;50.852;20.632;2023-04-01T10:08:32;96536.84;;;9.80;100.00
21359;BME280;13506;50.852;20.632;2023-04-01T10:11:32;96535.19;;;9.97;100.00
21359;BME280;13506;50.852;20.632;2023-04-01T10:14:45;96529.16;;;10.22;100.00
21359;BME280;13506;50.852;20.632;2023-04-01T10:17:38;96530.59;;;10.43;100.00
21359;BME280;13506;50.852;20.632;2023-04-01T10:20:37;96530.97;;;10.56;98.71
21359;BME280;13506;50.852;20.632;2023-04-01T10:23:26;96531.66;;;10.58;96.31
21359;BME280;13506;50.852;20.632;2023-04-01T10:26:33;96537.84;;;10.57;95.74
21359;BME280;13506;50.852;20.632;2023-04-01T10:30:32;96528.66;;;10.53;96.93
21359;BME280;13506;50.852;20.632;2023-04-01T10:36:45;96532.59;;;10.57;96.34
21359;BME280;13506;50.852;20.632;2023-04-01T10:39:54;96531.31;;;10.61;96.99
21359;BME280;13506;50.852;20.632;2023-04-01T10:53:28;96525.00;;;11.06;94.24
21359;BME280;13506;50.852;20.632;2023-04-01T10:56:36;96532.16;;;11.04;93.23
21359;BME280;13506;50.852;20.632;2023-04-01T11:13:27;96504.34;;;12.67;82.63
21359;BME280;13506;50.852;20.632;2023-04-01T11:19:25;96517.28;;;13.00;79.02
21359;BME280;13506;50.852;20.632;2023-04-01T11:22:33;96507.84;;;12.91;78.38
21359;BME280;13506;50.852;20.632;2023-04-01T11:25:18;96516.69;;;12.90;78.94
21359;BME280;13506;50.852;20.632;2023-04-01T11:28:27;96514.09;;;12.82;78.38
21359;BME280;13506;50.852;20.632;2023-04-01T11:31:29;96514.97;;;12.74;79.79
21359;BME280;13506;50.852;20.632;2023-04-01T11:34:07;96512.47;;;12.81;80.60
21359;BME280;13506;50.852;20.632;2023-04-01T11:36:47;96516.41;;;12.76;79.17
21359;BME280;13506;50.852;20.632;2023-04-01T11:39:30;96506.47;;;12.64;78.46
21359;BME280;13506;50.852;20.632;2023-04-01T11:42:24;96515.53;;;12.45;77.71
21359;BME280;13506;50.852;20.632;2023-04-01T11:45:28;96527.69;;;12.21;77.87
21359;BME280;13506;50.852;20.632;2023-04-01T11:48:26;96518.69;;;11.99;78.66
21359;BME280;13506;50.852;20.632;2023-04-01T11:51:09;96521.16;;;11.84;79.78
21359;BME280;13506;50.852;20.632;2023-04-01T11:53:50;96521.50;;;11.81;79.63
21359;BME280;13506;50.852;20.632;2023-04-01T11:56:36;96527.06;;;11.78;80.48
21359;BME280;13506;50.852;20.632;2023-04-01T12:02:19;96518.22;;;12.04;81.13
21359;BME280;13506;50.852;20.632;2023-04-01T12:10:59;96518.88;;;11.73;80.69
21359;BME280;13506;50.852;20.632;2023-04-01T12:13:37;96523.78;;;11.60;81.20
21359;BME280;13506;50.852;20.632;2023-04-01T12:16:29;96534.56;;;11.40;81.87
21359;BME280;13506;50.852;20.632;2023-04-01T12:19:09;96541.22;;;11.18;82.79
21359;BME280;13506;50.852;20.632;2023-04-01T12:21:45;96516.75;;;11.01;84.82
21359;BME280;13506;50.852;20.632;2023-04-01T12:24:41;96520.91;;;11.12;85.05
21359;BME280;13506;50.852;20.632;2023-04-01T12:27:41;96526.84;;;11.22;82.92
21359;BME280;13506;50.852;20.632;2023-04-01T12:30:35;96511.97;;;11.39;81.17
21359;BME280;13506;50.852;20.632;2023-04-01T12:33:21;96530.34;;;11.72;80.90
21359;BME280;13506;50.852;20.632;2023-04-01T12:36:05;96529.38;;;11.97;75.93
21359;BME280;13506;50.852;20.632;2023-04-01T12:38:47;96539.16;;;12.12;73.62
21359;BME280;13506;50.852;20.632;2023-04-01T12:41:26;96528.03;;;12.26;73.81
21359;BME280;13506;50.852;20.632;2023-04-01T12:44:35;96524.88;;;12.39;73.72
21359;BME280;13506;50.852;20.632;2023-04-01T12:47:27;96523.44;;;12.36;74.01
21359;BME280;13506;50.852;20.632;2023-04-01T12:50:28;96526.56;;;12.32;74.81
21359;BME280;13506;50.852;20.632;2023-04-01T12:53:23;96527.84;;;12.20;75.37
21359;BME280;13506;50.852;20.632;2023-04-01T12:56:03;96515.56;;;12.12;76.06
21359;BME280;13506;50.852;20.632;2023-04-01T12:59:17;96516.22;;;12.14;77.51
21359;BME280;13506;50.852;20.632;2023-04-01T13:02:01;96509.81;;;12.41;76.76
21359;BME280;13506;50.852;20.632;2023-04-01T13:04:44;96507.31;;;12.48;76.70
21359;BME280;13506;50.852;20.632;2023-04-01T13:10:27;96515.84;;;12.50;76.82
21359;BME280;13506;50.852;20.632;2023-04-01T13:13:28;96509.63;;;12.51;77.50
21359;BME280;13506;50.852;20.632;2023-04-01T13:16:00;96523.03;;;12.56;77.08
21359;BME280;13506;50.852;20.632;2023-04-01T13:18:44;96524.72;;;12.49;77.49
21359;BME280;13506;50.852;20.632;2023-04-01T13:21:24;96518.47;;;12.50;77.67
21359;BME280;13506;50.852;20.632;2023-04-01T13:24:05;96529.16;;;12.48;77.53
21359;BME280;13506;50.852;20.632;2023-04-01T13:26:43;96529.47;;;12.37;77.53
21359;BME280;13506;50.852;20.632;2023-04-01T13:29:20;96533.25;;;12.18;78.43
21359;BME280;13506;50.852;20.632;2023-04-01T13:32:05;96538.03;;;11.98;79.38
21359;BME280;13506;50.852;20.632;2023-04-01T13:34:48;96532.47;;;11.76;80.02
21359;BME280;13506;50.852;20.632;2023-04-01T13:37:36;96533.25;;;11.52;81.53
21359;BME280;13506;50.852;20.632;2023-04-01T13:40:33;96531.63;;;11.43;82.28
21359;BME280;13506;50.852;20.632;2023-04-01T13:43:08;96538.94;;;11.31;83.76
21359;BME280;13506;50.852;20.632;2023-04-01T13:45:49;96543.22;;;11.32;84.19
21359;BME280;13506;50.852;20.632;2023-04-01T13:48:46;96558.09;;;11.24;85.78
21359;BME280;13506;50.852;20.632;2023-04-01T13:54:50;96553.38;;;10.93;88.51
21359;BME280;13506;50.852;20.632;2023-04-01T13:57:49;96542.88;;;10.85;89.31
21359;BME280;13506;50.852;20.632;2023-04-01T14:00:35;96546.78;;;10.81;89.04
21359;BME280;13506;50.852;20.632;2023-04-01T14:03:30;96555.91;;;10.68;90.02
21359;BME280;13506;50.852;20.632;2023-04-01T14:06:27;96544.06;;;10.56;90.54
21359;BME280;13506;50.852;20.632;2023-04-01T14:09:10;96549.19;;;10.40;91.33
21359;BME280;13506;50.852;20.632;2023-04-01T14:11:53;96568.47;;;10.39;93.31
21359;BME280;13506;50.852;20.632;2023-04-01T14:14:33;96552.13;;;10.37;93.66
21359;BME280;13506;50.852;20.632;2023-04-01T14:17:46;96558.09;;;10.55;94.82
21359;BME280;13506;50.852;20.632;2023-04-01T14:20:30;96551.56;;;10.85;95.80
21359;BME280;13506;50.852;20.632;2023-04-01T14:23:11;96542.13;;;11.01;93.70
21359;BME280;13506;50.852;20.632;2023-04-01T14:25:56;96545.94;;;11.14;94.24
21359;BME280;13506;50.852;20.632;2023-04-01T14:28:36;96540.78;;;11.39;93.52
21359;BME280;13506;50.852;20.632;2023-04-01T14:34:20;96546.22;;;11.62;90.26
21359;BME280;13506;50.852;20.632;2023-04-01T14:37:15;96553.25;;;11.62;88.30
21359;BME280;13506;50.852;20.632;2023-04-01T14:40:02;96553.91;;;11.55;88.78
21359;BME280;13506;50.852;20.632;2023-04-01T14:42:48;96547.00;;;11.54;88.58
21359;BME280;13506;50.852;20.632;2023-04-01T14:45:40;96558.31;;;11.63;88.94
21359;BME280;13506;50.852;20.632;2023-04-01T14:48:24;96555.88;;;11.70;88.79
21359;BME280;13506;50.852;20.632;2023-04-01T14:50:55;96555.03;;;11.69;88.43
21359;BME280;13506;50.852;20.632;2023-04-01T14:53:29;96563.09;;;11.68;87.83
21359;BME280;13506;50.852;20.632;2023-04-01T14:56:00;96561.78;;;11.64;87.57
21359;BME280;13506;50.852;20.632;2023-04-01T14:58:44;96556.66;;;11.46;87.71
21359;BME280;13506;50.852;20.632;2023-04-01T15:01:25;96568.56;;;11.24;88.36
21359;BME280;13506;50.852;20.632;2023-04-01T15:04:08;96580.94;;;11.13;89.33
21359;BME280;13506;50.852;20.632;2023-04-01T15:06:57;96566.41;;;10.85;91.32
21359;BME280;13506;50.852;20.632;2023-04-01T15:09:36;96590.44;;;10.54;92.72
21359;BME280;13506;50.852;20.632;2023-04-01T15:12:16;96585.00;;;10.21;95.13
21359;BME280;13506;50.852;20.632;2023-04-01T15:15:10;96591.47;;;10.09;95.87
21359;BME280;13506;50.852;20.632;2023-04-01T15:17:58;96579.66;;;10.05;97.35
21359;BME280;13506;50.852;20.632;2023-04-01T15:20:46;96599.44;;;10.07;97.47
21359;BME280;13506;50.852;20.632;2023-04-01T15:23:26;96598.47;;;10.08;97.37